sensor_id;sensor_type;location;lat;lon;timestamp;temperature;humidity
18177;DHT22;9213;50.858;3.964;2023-02-28T00:01:09;5.60;42.50
18177;DHT22;9213;50.858;3.964;2023-02-28T00:03:36;5.60;42.60
18177;DHT22;9213;50.858;3.964;2023-02-28T00:06:04;5.60;42.80
18177;DHT22;9213;50.858;3.964;2023-02-28T00:08:31;5.50;42.80
18177;DHT22;9213;50.858;3.964;2023-02-28T00:11:02;5.50;42.90
18177;DHT22;9213;50.858;3.964;2023-02-28T00:13:29;5.50;42.90
18177;DHT22;9213;50.858;3.964;2023-02-28T00:16:00;5.50;42.90
18177;DHT22;9213;50.858;3.964;2023-02-28T00:18:28;5.50;43.00
18177;DHT22;9213;50.858;3.964;2023-02-28T00:20:54;5.40;42.90
18177;DHT22;9213;50.858;3.964;2023-02-28T00:23:21;5.40;43.00
18177;DHT22;9213;50.858;3.964;2023-02-28T00:25:49;5.40;43.10
18177;DHT22;9213;50.858;3.964;2023-02-28T00:28:18;5.40;43.10
18177;DHT22;9213;50.858;3.964;2023-02-28T00:30:45;5.40;43.30
18177;DHT22;9213;50.858;3.964;2023-02-28T00:33:12;5.40;43.30
18177;DHT22;9213;50.858;3.964;2023-02-28T00:35:39;5.40;43.30
18177;DHT22;9213;50.858;3.964;2023-02-28T00:38:06;5.30;43.30
18177;DHT22;9213;50.858;3.964;2023-02-28T00:40:33;5.30;43.40
18177;DHT22;9213;50.858;3.964;2023-02-28T00:43:00;5.30;43.50
18177;DHT22;9213;50.858;3.964;2023-02-28T00:45:30;5.30;43.60
18177;DHT22;9213;50.858;3.964;2023-02-28T00:47:57;5.30;43.70
18177;DHT22;9213;50.858;3.964;2023-02-28T00:50:24;5.30;43.70
18177;DHT22;9213;50.858;3.964;2023-02-28T00:52:51;5.30;43.70
18177;DHT22;9213;50.858;3.964;2023-02-28T00:55:17;5.20;43.60
18177;DHT22;9213;50.858;3.964;2023-02-28T00:57:45;5.20;43.80
18177;DHT22;9213;50.858;3.964;2023-02-28T01:00:12;5.20;43.80
18177;DHT22;9213;50.858;3.964;2023-02-28T01:02:41;5.20;43.90
18177;DHT22;9213;50.858;3.964;2023-02-28T01:05:08;5.20;44.10
18177;DHT22;9213;50.858;3.964;2023-02-28T01:07:35;5.20;44.10
18177;DHT22;9213;50.858;3.964;2023-02-28T01:10:02;5.20;44.10
18177;DHT22;9213;50.858;3.964;2023-02-28T01:12:29;5.20;44.10
18177;DHT22;9213;50.858;3.964;2023-02-28T01:14:56;5.20;44.10
18177;DHT22;9213;50.858;3.964;2023-02-28T01:17:23;5.20;44.20
18177;DHT22;9213;50.858;3.964;2023-02-28T01:19:54;5.10;44.20
18177;DHT22;9213;50.858;3.964;2023-02-28T01:22:22;5.10;44.30
18177;DHT22;9213;50.858;3.964;2023-02-28T01:24:49;5.10;44.30
18177;DHT22;9213;50.858;3.964;2023-02-28T01:27:16;5.10;44.30
18177;DHT22;9213;50.858;3.964;2023-02-28T01:29:43;5.00;44.50
18177;DHT22;9213;50.858;3.964;2023-02-28T01:32:09;5.00;44.40
18177;DHT22;9213;50.858;3.964;2023-02-28T01:34:37;5.00;44.50
18177;DHT22;9213;50.858;3.964;2023-02-28T01:37:05;5.00;44.70
18177;DHT22;9213;50.858;3.964;2023-02-28T01:39:32;5.10;44.70
18177;DHT22;9213;50.858;3.964;2023-02-28T01:41:59;5.00;44.60
18177;DHT22;9213;50.858;3.964;2023-02-28T01:44:55;5.00;44.70
18177;DHT22;9213;50.858;3.964;2023-02-28T01:47:23;5.10;44.80
18177;DHT22;9213;50.858;3.964;2023-02-28T01:49:52;5.00;44.70
18177;DHT22;9213;50.858;3.964;2023-02-28T01:52:22;5.00;44.80
18177;DHT22;9213;50.858;3.964;2023-02-28T01:54:52;5.00;44.90
18177;DHT22;9213;50.858;3.964;2023-02-28T01:57:24;5.10;45.00
18177;DHT22;9213;50.858;3.964;2023-02-28T01:59:55;5.10;44.90
18177;DHT22;9213;50.858;3.964;2023-02-28T02:02:25;5.10;45.00
18177;DHT22;9213;50.858;3.964;2023-02-28T02:04:56;5.10;44.90
18177;DHT22;9213;50.858;3.964;2023-02-28T02:07:30;5.10;45.00
18177;DHT22;9213;50.858;3.964;2023-02-28T02:10:02;5.10;45.00
18177;DHT22;9213;50.858;3.964;2023-02-28T02:12:42;5.10;44.90
18177;DHT22;9213;50.858;3.964;2023-02-28T02:15:17;5.10;45.00
18177;DHT22;9213;50.858;3.964;2023-02-28T02:17:50;5.00;44.80
18177;DHT22;9213;50.858;3.964;2023-02-28T02:23:48;5.00;45.00
18177;DHT22;9213;50.858;3.964;2023-02-28T02:29:37;4.90;45.00
18177;DHT22;9213;50.858;3.964;2023-02-28T02:35:32;4.90;45.10
18177;DHT22;9213;50.858;3.964;2023-02-28T02:38:05;4.80;45.00
18177;DHT22;9213;50.858;3.964;2023-02-28T02:40:37;4.80;45.30
18177;DHT22;9213;50.858;3.964;2023-02-28T02:43:08;4.80;45.30
18177;DHT22;9213;50.858;3.964;2023-02-28T02:45:41;4.80;45.30
18177;DHT22;9213;50.858;3.964;2023-02-28T02:48:11;4.80;45.30
18177;DHT22;9213;50.858;3.964;2023-02-28T02:50:44;4.80;45.40
18177;DHT22;9213;50.858;3.964;2023-02-28T02:53:14;4.80;45.40
18177;DHT22;9213;50.858;3.964;2023-02-28T02:55:45;4.70;45.60
18177;DHT22;9213;50.858;3.964;2023-02-28T02:58:15;4.70;45.60
18177;DHT22;9213;50.858;3.964;2023-02-28T03:00:47;4.70;45.70
18177;DHT22;9213;50.858;3.964;2023-02-28T03:03:17;4.70;45.70
18177;DHT22;9213;50.858;3.964;2023-02-28T03:05:49;4.70;45.60
18177;DHT22;9213;50.858;3.964;2023-02-28T03:08:16;4.70;45.70
18177;DHT22;9213;50.858;3.964;2023-02-28T03:10:45;4.60;45.80
18177;DHT22;9213;50.858;3.964;2023-02-28T03:13:35;4.60;45.80
18177;DHT22;9213;50.858;3.964;2023-02-28T03:16:28;4.70;46.00
18177;DHT22;9213;50.858;3.964;2023-02-28T03:22:01;4.60;45.70
18177;DHT22;9213;50.858;3.964;2023-02-28T03:24:34;4.60;45.80
18177;DHT22;9213;50.858;3.964;2023-02-28T03:27:07;4.50;45.90
18177;DHT22;9213;50.858;3.964;2023-02-28T03:29:37;4.50;46.00
18177;DHT22;9213;50.858;3.964;2023-02-28T03:32:08;4.50;46.10
18177;DHT22;9213;50.858;3.964;2023-02-28T03:34:43;4.50;46.20
18177;DHT22;9213;50.858;3.964;2023-02-28T03:37:18;4.50;46.30
18177;DHT22;9213;50.858;3.964;2023-02-28T03:39:49;4.50;46.40
18177;DHT22;9213;50.858;3.964;2023-02-28T03:42:20;4.40;46.30
18177;DHT22;9213;50.858;3.964;2023-02-28T03:44:49;4.40;46.30
18177;DHT22;9213;50.858;3.964;2023-02-28T03:47:23;4.40;46.50
18177;DHT22;9213;50.858;3.964;2023-02-28T03:49:54;4.30;46.50
18177;DHT22;9213;50.858;3.964;2023-02-28T03:52:27;4.30;46.60
18177;DHT22;9213;50.858;3.964;2023-02-28T03:54:59;4.30;46.70
18177;DHT22;9213;50.858;3.964;2023-02-28T03:57:33;4.30;46.70
18177;DHT22;9213;50.858;3.964;2023-02-28T04:00:07;4.30;46.90
18177;DHT22;9213;50.858;3.964;2023-02-28T04:02:36;4.30;46.90
18177;DHT22;9213;50.858;3.964;2023-02-28T04:05:03;4.30;46.90
18177;DHT22;9213;50.858;3.964;2023-02-28T04:07:32;4.30;46.90
18177;DHT22;9213;50.858;3.964;2023-02-28T04:09:59;4.30;46.90
18177;DHT22;9213;50.858;3.964;2023-02-28T04:12:26;4.30;47.00
18177;DHT22;9213;50.858;3.964;2023-02-28T04:14:53;4.30;46.90
18177;DHT22;9213;50.858;3.964;2023-02-28T04:17:20;4.20;46.90
18177;DHT22;9213;50.858;3.964;2023-02-28T04:19:47;4.20;47.00
18177;DHT22;9213;50.858;3.964;2023-02-28T04:22:14;4.20;47.00
18177;DHT22;9213;50.858;3.964;2023-02-28T04:24:44;4.20;47.00
18177;DHT22;9213;50.858;3.964;2023-02-28T04:27:11;4.20;47.00
18177;DHT22;9213;50.858;3.964;2023-02-28T04:29:38;4.20;47.00
18177;DHT22;9213;50.858;3.964;2023-02-28T04:32:05;4.20;47.00
18177;DHT22;9213;50.858;3.964;2023-02-28T04:34:32;4.20;47.10
18177;DHT22;9213;50.858;3.964;2023-02-28T04:36:59;4.20;47.10
18177;DHT22;9213;50.858;3.964;2023-02-28T04:39:26;4.20;47.10
18177;DHT22;9213;50.858;3.964;2023-02-28T04:41:54;4.20;47.10
18177;DHT22;9213;50.858;3.964;2023-02-28T04:44:22;4.20;47.30
18177;DHT22;9213;50.858;3.964;2023-02-28T04:46:49;4.10;47.30
18177;DHT22;9213;50.858;3.964;2023-02-28T04:49:16;4.10;48.10
18177;DHT22;9213;50.858;3.964;2023-02-28T04:51:43;4.20;47.40
18177;DHT22;9213;50.858;3.964;2023-02-28T04:54:10;4.20;47.50
18177;DHT22;9213;50.858;3.964;2023-02-28T04:56:38;4.20;47.60
18177;DHT22;9213;50.858;3.964;2023-02-28T04:59:07;4.20;47.60
18177;DHT22;9213;50.858;3.964;2023-02-28T05:01:34;4.30;47.70
18177;DHT22;9213;50.858;3.964;2023-02-28T05:04:03;4.40;47.50
18177;DHT22;9213;50.858;3.964;2023-02-28T05:06:31;4.40;47.40
18177;DHT22;9213;50.858;3.964;2023-02-28T05:08:59;4.50;47.50
18177;DHT22;9213;50.858;3.964;2023-02-28T05:11:28;4.60;47.40
18177;DHT22;9213;50.858;3.964;2023-02-28T05:14:00;4.60;47.30
18177;DHT22;9213;50.858;3.964;2023-02-28T05:16:28;4.70;47.40
18177;DHT22;9213;50.858;3.964;2023-02-28T05:18:55;4.70;47.40
18177;DHT22;9213;50.858;3.964;2023-02-28T05:21:28;4.80;47.20
18177;DHT22;9213;50.858;3.964;2023-02-28T05:23:56;4.80;47.30
18177;DHT22;9213;50.858;3.964;2023-02-28T05:26:24;4.80;47.20
18177;DHT22;9213;50.858;3.964;2023-02-28T05:28:51;4.90;47.20
18177;DHT22;9213;50.858;3.964;2023-02-28T05:31:18;4.90;47.20
18177;DHT22;9213;50.858;3.964;2023-02-28T05:33:47;4.90;47.10
18177;DHT22;9213;50.858;3.964;2023-02-28T05:36:14;5.00;47.20
18177;DHT22;9213;50.858;3.964;2023-02-28T05:38:41;5.00;47.10
18177;DHT22;9213;50.858;3.964;2023-02-28T05:41:09;5.00;47.10
18177;DHT22;9213;50.858;3.964;2023-02-28T05:43:36;5.10;47.20
18177;DHT22;9213;50.858;3.964;2023-02-28T05:46:04;5.10;47.10
18177;DHT22;9213;50.858;3.964;2023-02-28T05:48:32;5.10;47.10
18177;DHT22;9213;50.858;3.964;2023-02-28T05:51:01;5.10;47.10
18177;DHT22;9213;50.858;3.964;2023-02-28T05:53:28;5.20;47.10
18177;DHT22;9213;50.858;3.964;2023-02-28T05:55:56;5.20;47.10
18177;DHT22;9213;50.858;3.964;2023-02-28T05:58:23;5.20;47.10
18177;DHT22;9213;50.858;3.964;2023-02-28T06:00:54;5.20;47.10
18177;DHT22;9213;50.858;3.964;2023-02-28T06:03:21;5.20;47.10
18177;DHT22;9213;50.858;3.964;2023-02-28T06:05:48;5.20;47.10
18177;DHT22;9213;50.858;3.964;2023-02-28T06:08:17;5.30;47.20
18177;DHT22;9213;50.858;3.964;2023-02-28T06:10:44;5.30;47.30
18177;DHT22;9213;50.858;3.964;2023-02-28T06:13:11;5.30;47.20
18177;DHT22;9213;50.858;3.964;2023-02-28T06:15:38;5.30;47.20
18177;DHT22;9213;50.858;3.964;2023-02-28T06:18:06;5.30;47.30
18177;DHT22;9213;50.858;3.964;2023-02-28T06:20:33;5.30;47.30
18177;DHT22;9213;50.858;3.964;2023-02-28T06:23:00;5.30;47.40
18177;DHT22;9213;50.858;3.964;2023-02-28T06:25:28;5.30;47.30
18177;DHT22;9213;50.858;3.964;2023-02-28T06:27:55;5.30;47.50
18177;DHT22;9213;50.858;3.964;2023-02-28T06:30:22;5.30;47.50
18177;DHT22;9213;50.858;3.964;2023-02-28T06:32:52;5.30;47.50
18177;DHT22;9213;50.858;3.964;2023-02-28T06:35:20;5.30;47.60
18177;DHT22;9213;50.858;3.964;2023-02-28T06:37:47;5.30;47.60
18177;DHT22;9213;50.858;3.964;2023-02-28T06:40:14;5.30;47.50
18177;DHT22;9213;50.858;3.964;2023-02-28T06:42:43;5.40;47.60
18177;DHT22;9213;50.858;3.964;2023-02-28T06:45:10;5.40;47.60
18177;DHT22;9213;50.858;3.964;2023-02-28T06:47:39;5.40;47.70
18177;DHT22;9213;50.858;3.964;2023-02-28T06:50:08;5.50;47.70
18177;DHT22;9213;50.858;3.964;2023-02-28T06:52:36;5.50;47.70
18177;DHT22;9213;50.858;3.964;2023-02-28T06:55:04;5.50;47.70
18177;DHT22;9213;50.858;3.964;2023-02-28T06:57:32;5.50;47.70
18177;DHT22;9213;50.858;3.964;2023-02-28T07:00:04;5.50;47.70
18177;DHT22;9213;50.858;3.964;2023-02-28T07:02:33;5.60;47.70
18177;DHT22;9213;50.858;3.964;2023-02-28T07:05:00;5.60;47.70
18177;DHT22;9213;50.858;3.964;2023-02-28T07:07:27;5.60;47.70
18177;DHT22;9213;50.858;3.964;2023-02-28T07:09:54;5.60;47.80
18177;DHT22;9213;50.858;3.964;2023-02-28T07:12:21;5.60;47.80
18177;DHT22;9213;50.858;3.964;2023-02-28T07:14:48;5.70;47.80
18177;DHT22;9213;50.858;3.964;2023-02-28T07:17:16;5.70;47.80
18177;DHT22;9213;50.858;3.964;2023-02-28T07:19:43;5.80;47.80
18177;DHT22;9213;50.858;3.964;2023-02-28T07:22:10;5.80;47.70
18177;DHT22;9213;50.858;3.964;2023-02-28T07:24:37;5.90;47.70
18177;DHT22;9213;50.858;3.964;2023-02-28T07:27:04;5.90;47.60
18177;DHT22;9213;50.858;3.964;2023-02-28T07:29:32;6.00;47.50
18177;DHT22;9213;50.858;3.964;2023-02-28T07:31:59;6.00;47.40
18177;DHT22;9213;50.858;3.964;2023-02-28T07:34:27;6.10;47.40
18177;DHT22;9213;50.858;3.964;2023-02-28T07:36:54;6.20;47.30
18177;DHT22;9213;50.858;3.964;2023-02-28T07:39:21;6.30;47.20
18177;DHT22;9213;50.858;3.964;2023-02-28T07:41:48;6.30;47.00
18177;DHT22;9213;50.858;3.964;2023-02-28T07:44:15;6.40;46.90
18177;DHT22;9213;50.858;3.964;2023-02-28T07:46:42;6.50;47.00
18177;DHT22;9213;50.858;3.964;2023-02-28T07:49:09;6.60;46.80
18177;DHT22;9213;50.858;3.964;2023-02-28T07:51:37;6.60;46.60
18177;DHT22;9213;50.858;3.964;2023-02-28T07:54:05;6.70;46.40
18177;DHT22;9213;50.858;3.964;2023-02-28T07:56:32;6.70;46.30
18177;DHT22;9213;50.858;3.964;2023-02-28T07:58:58;6.80;46.30
18177;DHT22;9213;50.858;3.964;2023-02-28T08:01:27;6.80;46.30
18177;DHT22;9213;50.858;3.964;2023-02-28T08:03:54;6.90;46.30
18177;DHT22;9213;50.858;3.964;2023-02-28T08:06:24;7.00;46.90
18177;DHT22;9213;50.858;3.964;2023-02-28T08:08:53;7.10;46.10
18177;DHT22;9213;50.858;3.964;2023-02-28T08:11:21;7.20;46.00
18177;DHT22;9213;50.858;3.964;2023-02-28T08:13:49;7.30;46.10
18177;DHT22;9213;50.858;3.964;2023-02-28T08:16:17;7.50;45.70
18177;DHT22;9213;50.858;3.964;2023-02-28T08:18:48;7.50;45.30
18177;DHT22;9213;50.858;3.964;2023-02-28T08:21:14;7.60;44.90
18177;DHT22;9213;50.858;3.964;2023-02-28T08:23:41;7.70;44.80
18177;DHT22;9213;50.858;3.964;2023-02-28T08:26:10;7.70;44.70
18177;DHT22;9213;50.858;3.964;2023-02-28T08:28:37;7.70;44.60
18177;DHT22;9213;50.858;3.964;2023-02-28T08:31:08;7.80;44.30
18177;DHT22;9213;50.858;3.964;2023-02-28T08:33:35;7.80;44.20
18177;DHT22;9213;50.858;3.964;2023-02-28T08:36:03;7.80;44.00
18177;DHT22;9213;50.858;3.964;2023-02-28T08:38:30;7.80;44.10
18177;DHT22;9213;50.858;3.964;2023-02-28T08:41:01;7.70;44.10
18177;DHT22;9213;50.858;3.964;2023-02-28T08:43:30;7.80;44.20
18177;DHT22;9213;50.858;3.964;2023-02-28T08:45:57;7.80;44.00
18177;DHT22;9213;50.858;3.964;2023-02-28T08:48:24;7.80;44.00
18177;DHT22;9213;50.858;3.964;2023-02-28T08:50:55;7.80;43.80
18177;DHT22;9213;50.858;3.964;2023-02-28T08:53:22;7.80;43.50
18177;DHT22;9213;50.858;3.964;2023-02-28T08:55:56;7.80;43.40
18177;DHT22;9213;50.858;3.964;2023-02-28T08:58:23;7.80;43.10
18177;DHT22;9213;50.858;3.964;2023-02-28T09:00:51;7.80;43.00
18177;DHT22;9213;50.858;3.964;2023-02-28T09:03:18;7.80;43.00
18177;DHT22;9213;50.858;3.964;2023-02-28T09:05:53;7.80;43.00
18177;DHT22;9213;50.858;3.964;2023-02-28T09:08:20;7.90;42.80
18177;DHT22;9213;50.858;3.964;2023-02-28T09:10:47;8.00;42.80
18177;DHT22;9213;50.858;3.964;2023-02-28T09:13:14;8.00;42.50
18177;DHT22;9213;50.858;3.964;2023-02-28T09:15:41;8.10;42.40
18177;DHT22;9213;50.858;3.964;2023-02-28T09:18:09;8.30;42.70
18177;DHT22;9213;50.858;3.964;2023-02-28T09:20:37;8.50;42.20
18177;DHT22;9213;50.858;3.964;2023-02-28T09:23:05;8.70;41.60
18177;DHT22;9213;50.858;3.964;2023-02-28T09:25:32;8.80;41.00
18177;DHT22;9213;50.858;3.964;2023-02-28T09:27:59;8.90;40.50
18177;DHT22;9213;50.858;3.964;2023-02-28T09:30:26;8.90;39.90
18177;DHT22;9213;50.858;3.964;2023-02-28T09:32:53;9.00;39.50
18177;DHT22;9213;50.858;3.964;2023-02-28T09:35:23;9.00;39.30
18177;DHT22;9213;50.858;3.964;2023-02-28T09:37:52;9.10;39.30
18177;DHT22;9213;50.858;3.964;2023-02-28T09:40:21;9.10;39.10
18177;DHT22;9213;50.858;3.964;2023-02-28T09:42:51;9.30;39.10
18177;DHT22;9213;50.858;3.964;2023-02-28T09:45:30;9.40;38.60
18177;DHT22;9213;50.858;3.964;2023-02-28T09:48:01;9.60;38.20
18177;DHT22;9213;50.858;3.964;2023-02-28T09:50:35;9.80;37.70
18177;DHT22;9213;50.858;3.964;2023-02-28T09:53:10;9.90;37.50
18177;DHT22;9213;50.858;3.964;2023-02-28T09:55:43;10.10;37.30
18177;DHT22;9213;50.858;3.964;2023-02-28T09:58:17;10.10;36.90
18177;DHT22;9213;50.858;3.964;2023-02-28T10:00:49;10.20;36.30
18177;DHT22;9213;50.858;3.964;2023-02-28T10:03:27;10.20;36.30
18177;DHT22;9213;50.858;3.964;2023-02-28T10:06:01;10.30;36.10
18177;DHT22;9213;50.858;3.964;2023-02-28T10:08:34;10.50;35.60
18177;DHT22;9213;50.858;3.964;2023-02-28T10:11:11;10.70;35.00
18177;DHT22;9213;50.858;3.964;2023-02-28T10:13:50;10.90;34.60
18177;DHT22;9213;50.858;3.964;2023-02-28T10:16:22;11.00;34.20
18177;DHT22;9213;50.858;3.964;2023-02-28T10:18:52;11.00;34.00
18177;DHT22;9213;50.858;3.964;2023-02-28T10:21:26;11.10;34.00
18177;DHT22;9213;50.858;3.964;2023-02-28T10:24:02;11.30;33.20
18177;DHT22;9213;50.858;3.964;2023-02-28T10:26:31;11.30;33.10
18177;DHT22;9213;50.858;3.964;2023-02-28T10:28:59;11.40;33.10
18177;DHT22;9213;50.858;3.964;2023-02-28T10:31:26;11.50;32.70
18177;DHT22;9213;50.858;3.964;2023-02-28T10:33:53;11.60;32.70
18177;DHT22;9213;50.858;3.964;2023-02-28T10:36:21;11.60;32.50
18177;DHT22;9213;50.858;3.964;2023-02-28T10:38:49;11.80;32.10
18177;DHT22;9213;50.858;3.964;2023-02-28T10:41:27;11.70;29.00
18177;DHT22;9213;50.858;3.964;2023-02-28T10:44:13;12.10;30.20
18177;DHT22;9213;50.858;3.964;2023-02-28T10:46:41;12.30;30.40
18177;DHT22;9213;50.858;3.964;2023-02-28T10:49:14;12.30;29.90
18177;DHT22;9213;50.858;3.964;2023-02-28T10:51:41;12.40;29.60
18177;DHT22;9213;50.858;3.964;2023-02-28T10:54:18;12.40;29.50
18177;DHT22;9213;50.858;3.964;2023-02-28T10:56:45;12.40;29.30
18177;DHT22;9213;50.858;3.964;2023-02-28T10:59:28;12.30;29.50
18177;DHT22;9213;50.858;3.964;2023-02-28T11:01:55;12.30;29.90
18177;DHT22;9213;50.858;3.964;2023-02-28T11:04:34;12.30;29.90
18177;DHT22;9213;50.858;3.964;2023-02-28T11:07:05;12.30;29.80
18177;DHT22;9213;50.858;3.964;2023-02-28T11:09:35;12.30;29.30
18177;DHT22;9213;50.858;3.964;2023-02-28T11:12:06;12.40;29.50
18177;DHT22;9213;50.858;3.964;2023-02-28T11:14:40;12.50;29.60
18177;DHT22;9213;50.858;3.964;2023-02-28T11:17:15;12.60;29.40
18177;DHT22;9213;50.858;3.964;2023-02-28T11:19:49;12.70;29.00
18177;DHT22;9213;50.858;3.964;2023-02-28T11:22:19;12.90;28.80
18177;DHT22;9213;50.858;3.964;2023-02-28T11:24:50;13.00;28.60
18177;DHT22;9213;50.858;3.964;2023-02-28T11:27:46;13.10;27.80
18177;DHT22;9213;50.858;3.964;2023-02-28T11:30:29;13.20;27.60
18177;DHT22;9213;50.858;3.964;2023-02-28T11:32:56;13.20;27.30
18177;DHT22;9213;50.858;3.964;2023-02-28T11:35:26;13.10;27.60
18177;DHT22;9213;50.858;3.964;2023-02-28T11:37:55;13.20;27.40
18177;DHT22;9213;50.858;3.964;2023-02-28T11:40:30;13.20;26.90
18177;DHT22;9213;50.858;3.964;2023-02-28T11:43:08;13.20;26.30
18177;DHT22;9213;50.858;3.964;2023-02-28T11:45:51;13.20;26.80
18177;DHT22;9213;50.858;3.964;2023-02-28T11:48:25;13.30;26.60
18177;DHT22;9213;50.858;3.964;2023-02-28T11:51:03;13.30;26.30
18177;DHT22;9213;50.858;3.964;2023-02-28T11:53:59;13.40;26.40
18177;DHT22;9213;50.858;3.964;2023-02-28T11:56:37;13.50;26.30
18177;DHT22;9213;50.858;3.964;2023-02-28T11:59:28;13.50;26.10
18177;DHT22;9213;50.858;3.964;2023-02-28T12:02:23;13.60;26.10
18177;DHT22;9213;50.858;3.964;2023-02-28T12:05:05;13.70;26.30
18177;DHT22;9213;50.858;3.964;2023-02-28T12:07:42;13.70;25.50
18177;DHT22;9213;50.858;3.964;2023-02-28T12:10:21;13.70;25.80
18177;DHT22;9213;50.858;3.964;2023-02-28T12:13:03;13.80;25.20
18177;DHT22;9213;50.858;3.964;2023-02-28T12:15:59;13.90;25.70
18177;DHT22;9213;50.858;3.964;2023-02-28T12:21:31;14.10;25.20
18177;DHT22;9213;50.858;3.964;2023-02-28T12:24:15;14.20;25.00
18177;DHT22;9213;50.858;3.964;2023-02-28T12:26:44;14.20;24.70
18177;DHT22;9213;50.858;3.964;2023-02-28T12:29:17;14.30;24.70
18177;DHT22;9213;50.858;3.964;2023-02-28T12:31:49;14.30;25.00
18177;DHT22;9213;50.858;3.964;2023-02-28T12:34:20;14.40;24.60
18177;DHT22;9213;50.858;3.964;2023-02-28T12:36:50;14.40;24.70
18177;DHT22;9213;50.858;3.964;2023-02-28T12:39:23;14.40;24.30
18177;DHT22;9213;50.858;3.964;2023-02-28T12:41:54;14.50;24.30
18177;DHT22;9213;50.858;3.964;2023-02-28T12:44:35;14.50;24.20
18177;DHT22;9213;50.858;3.964;2023-02-28T12:47:04;14.60;24.10
18177;DHT22;9213;50.858;3.964;2023-02-28T12:49:34;14.50;24.00
18177;DHT22;9213;50.858;3.964;2023-02-28T12:52:04;14.50;24.10
18177;DHT22;9213;50.858;3.964;2023-02-28T12:54:39;14.60;24.00
18177;DHT22;9213;50.858;3.964;2023-02-28T12:57:13;14.70;24.30
18177;DHT22;9213;50.858;3.964;2023-02-28T12:59:50;14.70;23.90
18177;DHT22;9213;50.858;3.964;2023-02-28T13:02:50;14.80;23.50
18177;DHT22;9213;50.858;3.964;2023-02-28T13:05:52;14.80;23.40
18177;DHT22;9213;50.858;3.964;2023-02-28T13:08:41;14.90;23.60
18177;DHT22;9213;50.858;3.964;2023-02-28T13:11:24;14.90;23.20
18177;DHT22;9213;50.858;3.964;2023-02-28T13:13:58;14.90;23.60
18177;DHT22;9213;50.858;3.964;2023-02-28T13:16:27;15.00;23.20
18177;DHT22;9213;50.858;3.964;2023-02-28T13:19:08;15.00;23.90
18177;DHT22;9213;50.858;3.964;2023-02-28T13:21:42;15.10;24.10
18177;DHT22;9213;50.858;3.964;2023-02-28T13:24:10;15.10;23.20
18177;DHT22;9213;50.858;3.964;2023-02-28T13:27:21;15.20;22.70
18177;DHT22;9213;50.858;3.964;2023-02-28T13:29:50;15.20;23.20
18177;DHT22;9213;50.858;3.964;2023-02-28T13:32:43;15.10;22.90
18177;DHT22;9213;50.858;3.964;2023-02-28T13:35:38;15.10;23.20
18177;DHT22;9213;50.858;3.964;2023-02-28T13:38:21;15.10;23.00
18177;DHT22;9213;50.858;3.964;2023-02-28T13:40:48;15.00;22.10
18177;DHT22;9213;50.858;3.964;2023-02-28T13:43:17;15.00;22.20
18177;DHT22;9213;50.858;3.964;2023-02-28T13:46:06;15.10;22.30
18177;DHT22;9213;50.858;3.964;2023-02-28T13:48:36;15.10;22.50
18177;DHT22;9213;50.858;3.964;2023-02-28T13:51:28;15.10;22.40
18177;DHT22;9213;50.858;3.964;2023-02-28T13:54:11;15.10;22.30
18177;DHT22;9213;50.858;3.964;2023-02-28T13:56:47;15.00;22.30
18177;DHT22;9213;50.858;3.964;2023-02-28T13:59:25;15.00;21.80
18177;DHT22;9213;50.858;3.964;2023-02-28T14:02:03;15.00;21.90
18177;DHT22;9213;50.858;3.964;2023-02-28T14:04:49;15.00;22.00
18177;DHT22;9213;50.858;3.964;2023-02-28T14:07:23;15.00;22.50
18177;DHT22;9213;50.858;3.964;2023-02-28T14:09:58;15.00;22.20
18177;DHT22;9213;50.858;3.964;2023-02-28T14:12:58;14.90;22.00
18177;DHT22;9213;50.858;3.964;2023-02-28T14:15:39;14.90;22.10
18177;DHT22;9213;50.858;3.964;2023-02-28T14:18:19;14.80;22.20
18177;DHT22;9213;50.858;3.964;2023-02-28T14:20:49;14.60;21.80
18177;DHT22;9213;50.858;3.964;2023-02-28T14:23:32;14.50;22.10
18177;DHT22;9213;50.858;3.964;2023-02-28T14:26:06;14.50;23.20
18177;DHT22;9213;50.858;3.964;2023-02-28T14:28:50;14.40;22.20
18177;DHT22;9213;50.858;3.964;2023-02-28T14:31:25;14.30;21.80
18177;DHT22;9213;50.858;3.964;2023-02-28T14:34:12;14.20;22.20
18177;DHT22;9213;50.858;3.964;2023-02-28T14:36:42;14.10;22.20
18177;DHT22;9213;50.858;3.964;2023-02-28T14:39:13;14.00;22.20
18177;DHT22;9213;50.858;3.964;2023-02-28T14:41:44;13.90;22.40
18177;DHT22;9213;50.858;3.964;2023-02-28T14:44:17;13.80;22.60
18177;DHT22;9213;50.858;3.964;2023-02-28T14:46:45;13.70;23.10
18177;DHT22;9213;50.858;3.964;2023-02-28T14:49:24;13.60;23.00
18177;DHT22;9213;50.858;3.964;2023-02-28T14:52:06;13.60;23.10
18177;DHT22;9213;50.858;3.964;2023-02-28T14:54:35;13.50;22.70
18177;DHT22;9213;50.858;3.964;2023-02-28T14:57:03;13.40;22.80
18177;DHT22;9213;50.858;3.964;2023-02-28T14:59:31;13.30;23.00
18177;DHT22;9213;50.858;3.964;2023-02-28T15:02:19;13.20;23.10
18177;DHT22;9213;50.858;3.964;2023-02-28T15:04:54;13.10;23.80
18177;DHT22;9213;50.858;3.964;2023-02-28T15:07:23;13.00;23.10
18177;DHT22;9213;50.858;3.964;2023-02-28T15:10:13;12.90;22.90
18177;DHT22;9213;50.858;3.964;2023-02-28T15:12:48;12.80;23.30
18177;DHT22;9213;50.858;3.964;2023-02-28T15:15:17;12.70;23.10
18177;DHT22;9213;50.858;3.964;2023-02-28T15:17:49;12.60;23.60
18177;DHT22;9213;50.858;3.964;2023-02-28T15:20:17;12.50;23.90
18177;DHT22;9213;50.858;3.964;2023-02-28T15:22:47;12.50;24.30
18177;DHT22;9213;50.858;3.964;2023-02-28T15:25:19;12.40;24.00
18177;DHT22;9213;50.858;3.964;2023-02-28T15:27:48;12.30;23.80
18177;DHT22;9213;50.858;3.964;2023-02-28T15:30:17;12.20;23.80
18177;DHT22;9213;50.858;3.964;2023-02-28T15:33:01;12.10;24.30
18177;DHT22;9213;50.858;3.964;2023-02-28T15:35:31;12.00;24.00
18177;DHT22;9213;50.858;3.964;2023-02-28T15:38:03;12.00;24.30
18177;DHT22;9213;50.858;3.964;2023-02-28T15:40:36;11.90;24.10
18177;DHT22;9213;50.858;3.964;2023-02-28T15:43:05;11.90;24.40
18177;DHT22;9213;50.858;3.964;2023-02-28T15:45:36;11.80;24.30
18177;DHT22;9213;50.858;3.964;2023-02-28T15:48:19;11.70;24.50
18177;DHT22;9213;50.858;3.964;2023-02-28T15:50:49;11.70;24.30
18177;DHT22;9213;50.858;3.964;2023-02-28T15:53:21;11.60;24.20
18177;DHT22;9213;50.858;3.964;2023-02-28T15:55:54;11.50;24.60
18177;DHT22;9213;50.858;3.964;2023-02-28T15:58:22;11.40;25.20
18177;DHT22;9213;50.858;3.964;2023-02-28T16:01:01;11.40;24.80
18177;DHT22;9213;50.858;3.964;2023-02-28T16:03:39;11.30;24.90
18177;DHT22;9213;50.858;3.964;2023-02-28T16:06:26;11.20;25.00
18177;DHT22;9213;50.858;3.964;2023-02-28T16:08:57;11.20;25.20
18177;DHT22;9213;50.858;3.964;2023-02-28T16:11:23;11.10;25.20
18177;DHT22;9213;50.858;3.964;2023-02-28T16:13:51;11.00;25.20
18177;DHT22;9213;50.858;3.964;2023-02-28T16:16:19;10.90;25.60
18177;DHT22;9213;50.858;3.964;2023-02-28T16:18:47;10.90;25.60
18177;DHT22;9213;50.858;3.964;2023-02-28T16:21:14;10.80;25.50
18177;DHT22;9213;50.858;3.964;2023-02-28T16:23:41;10.80;25.90
18177;DHT22;9213;50.858;3.964;2023-02-28T16:26:18;10.70;26.20
18177;DHT22;9213;50.858;3.964;2023-02-28T16:28:46;10.70;26.10
18177;DHT22;9213;50.858;3.964;2023-02-28T16:31:13;10.60;26.10
18177;DHT22;9213;50.858;3.964;2023-02-28T16:33:42;10.50;26.20
18177;DHT22;9213;50.858;3.964;2023-02-28T16:36:12;10.50;26.40
18177;DHT22;9213;50.858;3.964;2023-02-28T16:38:39;10.40;26.70